createdAt,value
2022-09-20T00:04:59.551Z,11.30
2022-09-20T00:10:01.459Z,11.30
2022-09-20T00:15:03.666Z,11.40
2022-09-20T00:20:05.786Z,11.30
2022-09-20T00:25:08.578Z,11.30
2022-09-20T00:30:10.854Z,11.40
2022-09-20T00:35:12.572Z,11.30
2022-09-20T00:40:17.965Z,11.30
2022-09-20T00:45:21.117Z,11.30
2022-09-20T00:50:46.028Z,11.30
2022-09-20T00:55:50.028Z,11.30
2022-09-20T01:00:53.979Z,11.40
2022-09-20T01:05:56.249Z,11.40
2022-09-20T01:10:58.234Z,11.30
2022-09-20T01:16:02.548Z,11.20
2022-09-20T01:21:06.243Z,11.30
2022-09-20T01:26:29.211Z,11.30
2022-09-20T01:31:36.335Z,11.30
2022-09-20T01:37:06.838Z,11.30
2022-09-20T01:42:12.082Z,11.30
2022-09-20T01:47:38.461Z,11.30
2022-09-20T01:52:48.854Z,11.30
2022-09-20T01:58:33.759Z,11.30
2022-09-20T02:03:54.489Z,11.20
2022-09-20T02:09:24.194Z,11.20
2022-09-20T02:14:50.031Z,11.10
2022-09-20T02:20:08.469Z,11.10
2022-09-20T02:25:53.001Z,11.00
2022-09-20T02:31:20.225Z,10.90
2022-09-20T02:36:31.152Z,10.90
2022-09-20T02:42:12.840Z,10.70
2022-09-20T02:47:27.987Z,10.60
2022-09-20T02:52:54.287Z,10.40
2022-09-20T02:58:21.351Z,10.30
2022-09-20T03:03:42.916Z,10.10
2022-09-20T03:09:08.453Z,10.00
2022-09-20T03:14:23.126Z,10.00
2022-09-20T03:19:43.446Z,9.90
2022-09-20T03:25:22.879Z,9.90
2022-09-20T03:30:46.477Z,9.80
2022-09-20T03:35:50.974Z,9.60
2022-09-20T03:41:17.299Z,9.50
2022-09-20T03:46:29.006Z,9.50
2022-09-20T03:51:48.780Z,9.50
2022-09-20T03:57:11.626Z,9.50
2022-09-20T04:02:41.024Z,9.40
2022-09-20T04:08:07.858Z,9.30
2022-09-20T04:13:21.609Z,9.40
2022-09-20T04:18:45.959Z,9.40
2022-09-20T04:23:52.312Z,9.40
2022-09-20T04:28:58.450Z,9.40
2022-09-20T04:34:02.278Z,9.70
2022-09-20T04:39:32.561Z,9.80
2022-09-20T04:44:53.873Z,9.80
2022-09-20T04:50:11.516Z,9.90
2022-09-20T04:55:31.854Z,9.90
2022-09-20T05:00:43.376Z,10.00
2022-09-20T05:06:14.346Z,10.20
2022-09-20T05:11:27.846Z,10.30
2022-09-20T05:17:07.987Z,10.30
2022-09-20T05:22:48.155Z,10.30
2022-09-20T05:28:08.802Z,10.30
2022-09-20T05:33:22.588Z,10.40
2022-09-20T05:38:45.648Z,10.40
2022-09-20T05:44:01.675Z,10.40
2022-09-20T05:49:37.049Z,10.50
2022-09-20T05:55:01.288Z,10.60
2022-09-20T06:00:15.823Z,11.20
2022-09-20T06:05:52.956Z,11.40
2022-09-20T06:11:23.233Z,12.20
2022-09-20T06:16:40.483Z,13.00
2022-09-20T06:21:53.483Z,14.10
2022-09-20T06:26:58.848Z,14.40
2022-09-20T06:32:01.063Z,15.20
2022-09-20T06:37:36.696Z,16.90
2022-09-20T06:42:39.128Z,18.40
2022-09-20T06:47:41.018Z,15.90
2022-09-20T06:52:45.031Z,14.60
2022-09-20T06:57:47.237Z,13.90
2022-09-20T07:02:48.928Z,14.60
2022-09-20T07:07:50.661Z,14.10
2022-09-20T07:12:55.268Z,13.40
2022-09-20T07:17:57.029Z,13.00
2022-09-20T07:22:59.331Z,12.60
2022-09-20T07:28:01.391Z,12.60
2022-09-20T07:33:03.092Z,12.50
2022-09-20T07:38:07.794Z,12.10
2022-09-20T07:43:09.512Z,12.20
2022-09-20T07:48:11.198Z,12.30
2022-09-20T07:53:12.891Z,12.10
2022-09-20T07:58:14.577Z,12.20
2022-09-20T08:03:16.415Z,12.00
2022-09-20T08:08:19.047Z,12.30
2022-09-20T08:18:48.792Z,12.80
2022-09-20T08:23:50.799Z,12.80
2022-09-20T08:28:55.415Z,12.90
2022-09-20T08:33:58.942Z,13.40
2022-09-20T08:44:35.049Z,14.30
2022-09-20T08:49:38.061Z,17.00
2022-09-20T08:54:43.290Z,18.40
2022-09-20T08:59:45.242Z,17.70
2022-09-20T09:04:49.810Z,16.90
2022-09-20T09:09:54.525Z,16.10
2022-09-20T09:15:19.562Z,15.80
2022-09-20T09:20:23.489Z,15.70
2022-09-20T09:25:34.192Z,15.40
2022-09-20T09:30:38.463Z,15.20
2022-09-20T09:35:40.120Z,15.10
2022-09-20T09:40:53.826Z,15.00
2022-09-20T09:46:17.419Z,16.30
2022-09-20T09:51:23.103Z,16.40
2022-09-20T09:56:51.110Z,15.90
2022-09-20T10:02:15.953Z,15.80
2022-09-20T10:07:24.841Z,15.80
2022-09-20T10:12:49.015Z,16.00
2022-09-20T10:17:58.580Z,15.00
2022-09-20T10:23:51.377Z,14.60
2022-09-20T10:29:08.419Z,14.60
2022-09-20T10:34:46.048Z,14.40
2022-09-20T10:40:17.820Z,15.10
2022-09-20T10:51:52.937Z,18.30
2022-09-20T10:57:18.217Z,19.70
2022-09-20T11:02:46.468Z,18.70
2022-09-20T11:07:59.031Z,17.10
2022-09-20T11:13:06.254Z,16.50
2022-09-20T11:18:20.905Z,18.00
2022-09-20T11:23:37.382Z,18.60
2022-09-20T11:28:49.855Z,20.50
2022-09-20T11:33:57.733Z,19.30
2022-09-20T11:39:05.912Z,19.80
2022-09-20T11:44:14.956Z,21.50
2022-09-20T11:49:23.786Z,21.40
2022-09-20T11:55:06.875Z,20.00
2022-09-20T12:00:10.157Z,20.90
2022-09-20T12:05:38.013Z,20.30
2022-09-20T12:10:40.429Z,20.50
2022-09-20T12:15:42.601Z,20.90
2022-09-20T12:20:44.992Z,22.20
2022-09-20T12:26:03.139Z,21.70
2022-09-20T12:31:37.990Z,20.10
2022-09-20T12:36:56.241Z,21.00
2022-09-20T12:42:02.678Z,21.20
2022-09-20T12:47:09.918Z,21.70
2022-09-20T12:53:02.409Z,22.00
2022-09-20T12:58:10.994Z,21.70
2022-09-20T13:03:16.705Z,21.10
2022-09-20T13:08:25.661Z,19.50
2022-09-20T13:13:41.475Z,17.70
2022-09-20T13:18:43.880Z,17.50
2022-09-20T13:23:50.687Z,16.70
2022-09-20T13:28:55.228Z,16.00
2022-09-20T13:34:13.939Z,15.80
2022-09-20T13:39:36.095Z,16.00
2022-09-20T13:44:38.698Z,16.00
2022-09-20T13:49:43.109Z,16.00
2022-09-20T13:54:44.815Z,17.70
2022-09-20T13:59:47.086Z,19.10
2022-09-20T14:04:50.464Z,19.70
2022-09-20T14:09:52.610Z,20.00
2022-09-20T14:14:54.981Z,20.00
2022-09-20T14:19:57.594Z,18.60
2022-09-20T14:25:27.783Z,18.30
2022-09-20T14:30:36.870Z,18.80
2022-09-20T14:35:46.151Z,18.70
2022-09-20T14:40:49.171Z,19.20
2022-09-20T14:46:01.234Z,18.70
2022-09-20T14:51:21.307Z,18.00
2022-09-20T14:56:39.457Z,17.90
2022-09-20T15:01:44.980Z,17.60
2022-09-20T15:06:46.826Z,17.20
2022-09-20T15:12:00.381Z,16.60
2022-09-20T15:17:02.248Z,16.10
2022-09-20T15:22:04.144Z,16.20
2022-09-20T15:27:06.693Z,16.80
2022-09-20T15:32:10.555Z,16.60
2022-09-20T15:37:12.240Z,16.40
2022-09-20T15:42:13.935Z,15.90
2022-09-20T15:47:16.230Z,15.70
2022-09-20T15:52:24.317Z,15.70
2022-09-20T15:57:26.969Z,15.70
2022-09-20T16:02:29.239Z,15.60
2022-09-20T16:07:31.902Z,15.50
2022-09-20T16:12:33.631Z,15.40
2022-09-20T16:17:53.994Z,15.40
2022-09-20T16:22:55.827Z,15.20
2022-09-20T16:27:58.236Z,15.20
2022-09-20T16:33:05.669Z,15.10
2022-09-20T16:38:07.467Z,15.10
2022-09-20T16:43:09.306Z,14.90
2022-09-20T16:48:11.530Z,14.70
2022-09-20T16:53:13.298Z,14.80
2022-09-20T16:58:15.545Z,14.60
2022-09-20T17:03:17.389Z,14.30
2022-09-20T17:08:19.061Z,14.10
2022-09-20T17:13:20.870Z,13.70
2022-09-20T17:18:22.570Z,13.70
2022-09-20T17:23:24.261Z,13.50
2022-09-20T17:28:26.094Z,13.30
2022-09-20T17:33:30.261Z,13.20
2022-09-20T17:38:33.773Z,13.30
2022-09-20T17:43:36.806Z,13.10
2022-09-20T17:48:39.403Z,12.80
2022-09-20T17:53:41.116Z,12.50
2022-09-20T17:58:43.040Z,12.50
2022-09-20T18:03:46.550Z,12.30
2022-09-20T18:09:02.669Z,12.20
2022-09-20T18:14:06.823Z,12.10
2022-09-20T18:19:09.013Z,12.10
2022-09-20T18:24:12.069Z,11.90
2022-09-20T18:29:17.767Z,11.70
2022-09-20T18:34:22.749Z,11.70
2022-09-20T18:39:29.340Z,11.50
2022-09-20T18:44:33.915Z,11.40
2022-09-20T18:49:35.917Z,11.50
2022-09-20T18:54:40.947Z,11.10
2022-09-20T18:59:53.864Z,11.00
2022-09-20T19:05:06.737Z,10.80
2022-09-20T19:10:41.468Z,11.00
2022-09-20T19:16:01.317Z,11.10
2022-09-20T19:21:27.523Z,11.30
2022-09-20T19:26:31.157Z,11.40
2022-09-20T19:31:34.373Z,11.30
2022-09-20T19:36:53.885Z,11.20
2022-09-20T19:42:25.877Z,11.20
2022-09-20T19:47:54.843Z,10.90
2022-09-20T19:52:56.790Z,10.60
2022-09-20T19:57:59.072Z,10.50
2022-09-20T20:03:01.222Z,10.60
2022-09-20T20:08:30.694Z,10.60
2022-09-20T20:14:14.698Z,10.40
2022-09-20T20:19:37.549Z,10.20
2022-09-20T20:24:52.157Z,10.10
2022-09-20T20:29:56.977Z,10.00
2022-09-20T20:34:58.664Z,9.90
2022-09-20T20:40:00.568Z,9.70
2022-09-20T20:45:02.290Z,9.80
2022-09-20T20:50:04.848Z,9.60
2022-09-20T20:55:06.890Z,9.40
2022-09-20T21:00:09.247Z,9.50
2022-09-20T21:05:10.937Z,9.40
2022-09-20T21:10:13.546Z,9.10
2022-09-20T21:15:15.297Z,9.30
2022-09-20T21:20:17.048Z,9.10
2022-09-20T21:25:18.770Z,9.20
2022-09-20T21:30:20.535Z,9.10
2022-09-20T21:35:24.037Z,9.10
2022-09-20T21:40:26.856Z,9.00
2022-09-20T21:45:29.517Z,9.00
2022-09-20T21:50:31.206Z,9.00
2022-09-20T21:55:34.143Z,8.90
2022-09-20T22:00:35.878Z,8.70
2022-09-20T22:05:37.628Z,8.80
2022-09-20T22:10:39.372Z,8.70
2022-09-20T22:15:42.589Z,8.50
2022-09-20T22:20:45.532Z,8.60
2022-09-20T22:25:47.221Z,8.70
2022-09-20T22:30:49.015Z,8.50
2022-09-20T22:35:50.759Z,8.60
2022-09-20T22:40:57.211Z,8.60
2022-09-20T22:46:07.803Z,8.60
2022-09-20T22:51:15.276Z,8.60
2022-09-20T22:56:21.149Z,8.60
2022-09-20T23:01:29.270Z,8.60
2022-09-20T23:06:54.772Z,8.60
2022-09-20T23:11:56.609Z,8.50
2022-09-20T23:16:58.320Z,8.30
2022-09-20T23:22:00.023Z,8.10
2022-09-20T23:27:01.737Z,8.20
2022-09-20T23:32:03.515Z,8.10
2022-09-20T23:37:06.767Z,8.00
2022-09-20T23:42:08.507Z,8.10
2022-09-20T23:47:10.259Z,8.10
2022-09-20T23:52:11.954Z,8.00
2022-09-20T23:57:15.190Z,7.90
